Terminal Aerodrome Forecast
Issued by NWS

Current Version | Previous Version | Text Only | Print | Product List | Glossary On
Versions: 1 2 3 4 5 6 7 8 9 10 11 12 13 14 15
243
FTUS46 KSTO 241132
TAFSCK
TAF
KSCK 241132Z 2412/2512 14007KT P6SM VCSH OVC060
     FM241700 14017G26KT 6SM -RA OVC040
      TEMPO 2419/2423 3SM RA OVC020
     FM250200 15009KT P6SM -SHRA OVC040=

USA.gov is the U.S. government's official web portal to all federal, state and local government web resources and services.